createdAt,value
2023-03-27T00:05:20.664Z,7.54
2023-03-27T00:15:23.914Z,7.57
2023-03-27T00:25:29.367Z,7.59
2023-03-27T00:35:32.491Z,7.63
2023-03-27T00:45:38.217Z,7.60
2023-03-27T00:55:45.377Z,7.60
2023-03-27T01:05:50.432Z,7.67
2023-03-27T01:16:11.291Z,7.67
2023-03-27T01:26:35.940Z,7.61
2023-03-27T01:36:50.709Z,7.39
2023-03-27T01:47:01.836Z,7.19
2023-03-27T01:57:12.734Z,7.13
2023-03-27T02:07:22.884Z,7.18
2023-03-27T02:17:28.080Z,7.28
2023-03-27T02:27:45.236Z,7.19
2023-03-27T02:38:23.902Z,6.97
2023-03-27T02:48:49.900Z,6.76
2023-03-27T02:59:04.197Z,6.72
2023-03-27T03:09:11.778Z,6.72
2023-03-27T03:19:14.946Z,6.68
2023-03-27T03:29:19.436Z,6.61
2023-03-27T03:39:42.090Z,6.56
2023-03-27T03:49:46.465Z,6.72
2023-03-27T03:59:51.430Z,6.97
2023-03-27T04:10:02.002Z,7.03
2023-03-27T04:20:06.575Z,7.03
2023-03-27T04:30:15.908Z,7.04
2023-03-27T04:40:46.313Z,6.93
2023-03-27T04:50:49.662Z,6.87
2023-03-27T05:01:02.619Z,6.86
2023-03-27T05:11:25.099Z,6.86
2023-03-27T05:21:29.609Z,6.85
2023-03-27T05:31:34.005Z,6.84
2023-03-27T05:41:55.836Z,6.81
2023-03-27T05:51:58.955Z,6.90
2023-03-27T06:02:02.450Z,6.91
2023-03-27T06:12:17.991Z,6.86
2023-03-27T06:22:24.787Z,6.82
2023-03-27T06:32:28.118Z,6.92
2023-03-27T06:42:33.428Z,7.01
2023-03-27T06:52:58.597Z,7.04
2023-03-27T07:03:15.450Z,7.11
2023-03-27T07:13:32.956Z,7.16
2023-03-27T07:23:38.096Z,7.08
2023-03-27T07:33:45.143Z,7.17
2023-03-27T07:43:49.817Z,7.25
2023-03-27T07:53:59.050Z,7.30
2023-03-27T08:04:07.410Z,7.33
2023-03-27T08:14:11.150Z,7.32
2023-03-27T08:24:14.466Z,7.33
2023-03-27T08:34:41.064Z,7.23
2023-03-27T08:44:44.906Z,7.32
2023-03-27T08:55:00.156Z,7.41
2023-03-27T09:05:36.003Z,7.38
2023-03-27T09:15:46.223Z,7.21
2023-03-27T09:25:56.304Z,7.15
2023-03-27T09:36:19.604Z,7.23
2023-03-27T09:46:24.966Z,7.24
2023-03-27T09:56:43.060Z,7.19
2023-03-27T10:06:49.160Z,7.20
2023-03-27T10:16:55.965Z,7.09
2023-03-27T10:27:02.428Z,6.94
2023-03-27T10:37:20.917Z,6.79
2023-03-27T10:47:33.676Z,6.44
2023-03-27T10:57:38.280Z,5.89
2023-03-27T11:07:58.078Z,5.35
2023-03-27T11:18:15.574Z,5.03
2023-03-27T11:28:59.124Z,4.90
2023-03-27T11:39:30.339Z,4.73
2023-03-27T11:49:43.195Z,4.62
2023-03-27T12:00:16.511Z,4.62
2023-03-27T12:10:42.705Z,4.82
2023-03-27T12:21:08.795Z,4.90
2023-03-27T12:31:34.421Z,4.72
2023-03-27T12:41:38.261Z,4.24
2023-03-27T12:51:54.009Z,3.74
2023-03-27T13:02:35.293Z,3.42
2023-03-27T13:13:03.901Z,3.12
2023-03-27T13:23:15.663Z,2.73
2023-03-27T13:33:25.277Z,2.41
2023-03-27T13:43:35.452Z,2.21
2023-03-27T13:54:00.046Z,2.19
2023-03-27T14:04:27.698Z,2.15
2023-03-27T14:14:30.952Z,2.04
2023-03-27T14:24:39.739Z,2.15
2023-03-27T14:35:05.676Z,2.21
2023-03-27T14:45:23.001Z,2.14
2023-03-27T14:55:34.810Z,1.97
2023-03-27T15:06:14.218Z,1.79
2023-03-27T15:16:26.568Z,1.81
2023-03-27T15:26:35.187Z,1.79
2023-03-27T15:36:40.135Z,1.67
2023-03-27T15:46:54.399Z,1.64
2023-03-27T15:57:10.575Z,1.72
2023-03-27T16:07:19.744Z,1.73
2023-03-27T16:17:32.539Z,1.71
2023-03-27T16:27:49.612Z,1.69
2023-03-27T16:37:54.123Z,1.59
2023-03-27T16:47:57.172Z,1.57
2023-03-27T16:58:02.660Z,1.47
2023-03-27T17:08:07.271Z,1.29
2023-03-27T17:18:11.078Z,1.20
2023-03-27T17:28:14.273Z,1.20
2023-03-27T17:38:22.759Z,1.09
2023-03-27T17:48:25.796Z,0.92
2023-03-27T17:58:28.893Z,0.81
2023-03-27T18:08:32.984Z,0.78
2023-03-27T18:18:37.433Z,0.77
2023-03-27T18:28:43.533Z,0.72
2023-03-27T18:38:49.180Z,0.75
2023-03-27T18:48:54.013Z,0.83
2023-03-27T18:58:57.084Z,0.87
2023-03-27T19:09:00.276Z,0.84
2023-03-27T19:19:03.525Z,0.59
2023-03-27T19:29:31.146Z,0.44
2023-03-27T19:39:34.393Z,0.35
2023-03-27T19:49:37.781Z,0.32
2023-03-27T20:00:15.581Z,0.26
2023-03-27T20:10:18.695Z,0.13
2023-03-27T20:20:21.988Z,0.03
2023-03-27T20:30:25.896Z,-0.08
2023-03-27T20:40:31.382Z,-0.22
2023-03-27T20:50:38.019Z,-0.35
2023-03-27T21:00:43.800Z,-0.38
2023-03-27T21:10:54.244Z,-0.43
2023-03-27T21:20:57.408Z,-0.63
2023-03-27T21:31:02.785Z,-0.77
2023-03-27T21:41:06.716Z,-1.00
2023-03-27T21:51:09.916Z,-1.11
2023-03-27T22:01:16.223Z,-1.02
2023-03-27T22:11:21.400Z,-1.01
2023-03-27T22:21:27.802Z,-1.11
2023-03-27T22:31:31.241Z,-1.25
2023-03-27T22:41:37.372Z,-1.40
2023-03-27T22:51:41.657Z,-1.59
2023-03-27T23:01:45.078Z,-1.84
2023-03-27T23:11:48.186Z,-2.05
2023-03-27T23:21:51.289Z,-2.27
2023-03-27T23:31:54.503Z,-2.41
2023-03-27T23:41:58.656Z,-2.50
2023-03-27T23:52:01.956Z,-2.54
